Flight Track Log - Related Links

Times and Time Zones

All times are in EDT time to prevent confusion due to time zone crossing. See the ASQ4219 flight status page for this flight to view local times or setup timezone preferences in your user account.

Time Position Orientation Groundspeed Altitude Reporting Facility
EDT Latitude Longitude Course Direction KTS MPH feet Rate Location/Type
Mon 11:14:19 AM 31.7967 -106.4067 96° East 194 223 4,400  Level Albuquerque Center
Mon 11:14:38 AM 31.7811 -106.4156 206° Southwest 197 227 5,200 1,375 Climbing Albuquerque Center
Mon 11:15:07 AM 31.7647 -106.4150 178° South 199 229 5,500 989 Climbing Albuquerque Center
Mon 11:16:09 AM 31.7222 -106.3594 132° Southeast 231 266 6,700 1,258 Climbing Albuquerque Center
Mon 11:17:00 AM 31.7381 -105.8572 96° East  Level FlightAware Approximate
Mon 11:17:11 AM 31.7125 -106.2522 96° East 279 321 8,100  Level Albuquerque Center
Mon 11:18:00 AM 31.7232 -105.7293 100° East  Level FlightAware Approximate
Mon 11:18:13 AM 31.7042 -106.1589 96° East 287 330 9,900  Level Albuquerque Center
Mon 11:19:00 AM 31.7092 -105.6012 96° East  Level FlightAware Approximate
Mon 11:19:15 AM 31.6953 -106.0619 96° East 299 344 10,600  Level Albuquerque Center
Mon 11:20:17 AM 31.6861 -105.9519 96° East 334 384 11,300 823 Climbing Albuquerque Center
Mon 11:21:19 AM 31.6772 -105.8383 95° East 348 400 12,300 968 Climbing Albuquerque Center
Mon 11:22:21 AM 31.6653 -105.7239 97° East 353 406 13,300 968 Climbing Albuquerque Center
Mon 11:23:23 AM 31.6533 -105.6058 97° East 362 417 14,300 1,065 Climbing Albuquerque Center
Mon 11:24:25 AM 31.6397 -105.4608 96° East 371 427 15,500 1,065 Climbing Albuquerque Center
Mon 11:25:27 AM 31.6278 -105.3381 96° East 376 433 16,500 968 Climbing Albuquerque Center
Mon 11:26:29 AM 31.6214 -105.2139 93° East 380 437 17,500 919 Climbing Albuquerque Center
Mon 11:27:31 AM 31.6294 -105.0864 86° East 388 447 18,400 927 Climbing Albuquerque Center
Mon 11:28:32 AM 31.6361 -104.9592 86° East 390 449 19,400 1,024 Climbing Albuquerque Center
Mon 11:29:34 AM 31.6253 -104.8308 96° East 395 455 20,500 1,210 Climbing Albuquerque Center
Mon 11:30:36 AM 31.6111 -104.7044 97° East 392 451 21,900 1,306 Climbing Albuquerque Center
Mon 11:31:38 AM 31.5942 -104.5528 97° East 390 449 23,200 1,113 Climbing Albuquerque Center
Mon 11:32:40 AM 31.5806 -104.4261 97° East 391 450 24,200 968 Climbing Albuquerque Center
Mon 11:33:42 AM 31.5653 -104.2969 98° East 397 457 25,200 968 Climbing Albuquerque Center
Mon 11:34:44 AM 31.5506 -104.1681 98° East 399 459 26,200 968 Climbing Albuquerque Center
Mon 11:35:46 AM 31.5361 -104.0369 97° East 403 464 27,200 919 Climbing Albuquerque Center
Mon 11:36:48 AM 31.5192 -103.9064 99° East 406 467 28,100 919 Climbing Albuquerque Center
Mon 11:37:50 AM 31.5025 -103.7694 98° East 408 470 29,100 1,065 Climbing Albuquerque Center
Mon 11:38:52 AM 31.4836 -103.6089 98° East 414 476 30,300 919 Climbing Albuquerque Center
Mon 11:39:54 AM 31.4675 -103.4756 98° East 415 478 31,000 339 Climbing Albuquerque Center
Mon 11:40:56 AM 31.4472 -103.3356 100° East 429 494 31,000  Level Albuquerque Center
Mon 11:41:58 AM 31.4297 -103.1867 98° East 454 522 31,000 97 Level Albuquerque Center
Mon 11:43:00 AM 31.4097 -103.0325 99° East 472 543 31,200 532 Climbing Albuquerque Center
Mon 11:44:02 AM 31.3886 -102.8806 99° East 476 548 32,100 774 Climbing Albuquerque Center
Mon 11:45:04 AM 31.3700 -102.7319 98° East 465 535 32,800 677 Climbing Albuquerque Center
Mon 11:46:06 AM 31.3467 -102.5539 99° East 464 534 33,500 823 Climbing Albuquerque Center
Mon 11:47:08 AM 31.3286 -102.4203 99° East 476 548 34,500 726 Climbing Albuquerque Center
Mon 11:48:10 AM 31.3067 -102.2472 98° East 458 527 35,000 265 Climbing Albuquerque Center
Mon 11:49:01 AM 31.2922 -102.1200 98° East 474 545 35,000  Level Houston Center
Mon 11:50:03 AM 31.2703 -101.9700 100° East 469 540 35,000  Level Houston Center
Mon 11:51:05 AM 31.2489 -101.8181 99° East 472 543 35,000  Level Houston Center
Mon 11:52:08 AM 31.2281 -101.6681 99° East 471 542 35,000  Level Houston Center
Mon 11:53:10 AM 31.2028 -101.4869 99° East 470 541 35,000  Level Houston Center
Mon 11:54:12 AM 31.1811 -101.3364 100° East 472 543 35,000  Level Houston Center
Mon 11:55:14 AM 31.1617 -101.2014 100° East 469 540 35,000 -48 Level Houston Center
Mon 11:56:16 AM 31.1414 -101.0497 99° East 472 543 34,900  Descending Houston Center
Mon 11:57:18 AM 31.1150 -100.8697 100° East 470 541 35,000 48 Climbing Houston Center
Mon 11:58:20 AM 31.0936 -100.7172 99° East 474 545 35,000  Level Houston Center
Mon 11:59:23 AM 31.0708 -100.5647 100° East 476 548 35,000  Level Houston Center
Mon 12:00:25 PM 31.0492 -100.4119 99° East 476 548 35,000  Level Houston Center
Mon 12:01:27 PM 31.0272 -100.2606 100° East 474 545 35,000 -48 Level Houston Center
Mon 12:02:29 PM 31.0033 -100.1114 101° East 469 540 34,900  Descending Houston Center
Mon 12:03:31 PM 30.9789 -99.9331 99° East 464 534 35,000 48 Climbing Houston Center
Mon 12:04:33 PM 30.9719 -99.7836 93° East 461 531 35,000  Level Houston Center
Mon 12:05:35 PM 30.9675 -99.6322 92° East 466 536 35,000 -48 Level Houston Center
Mon 12:06:37 PM 30.9633 -99.4775 92° East 475 547 34,900  Descending Houston Center
Mon 12:07:40 PM 30.9586 -99.3225 92° East 478 550 35,000 48 Climbing Houston Center
Mon 12:08:42 PM 30.9517 -99.1511 93° East 475 547 35,000  Level Houston Center
Mon 12:09:44 PM 30.9467 -98.9958 92° East 474 545 35,000  Level Houston Center
Mon 12:10:46 PM 30.9422 -98.8406 92° East 475 547 35,000  Level Houston Center
Mon 12:11:48 PM 30.9361 -98.6864 93° East 474 545 35,000  Level Houston Center
Mon 12:12:50 PM 30.9314 -98.5322 92° East 472 543 35,000  Level Houston Center
Mon 12:13:52 PM 30.9233 -98.3519 93° East 473 544 35,000  Level Houston Center
Mon 12:14:54 PM 30.9167 -98.1994 93° East 470 541 35,000  Level Houston Center
Mon 12:15:56 PM 30.9111 -98.0469 92° East 468 539 35,000  Level Houston Center
Mon 12:16:59 PM 30.9050 -97.8997 93° East 455 524 35,000  Level Houston Center
Mon 12:18:01 PM 30.8992 -97.7556 93° East 444 511 35,000  Level Houston Center
Mon 12:19:03 PM 30.8922 -97.6103 93° East 446 513 35,000  Level Houston Center
Mon 12:20:05 PM 30.8850 -97.4650 93° East 448 516 35,000  Level Houston Center
Mon 12:21:07 PM 30.8789 -97.3006 92° East 455 524 35,000 -290 Level Houston Center
Mon 12:22:09 PM 30.8703 -97.1508 94° East 458 527 34,400 -1,452 Descending Houston Center
Mon 12:23:11 PM 30.8317 -97.0100 108° East 454 522 32,000 -2,468 Descending Houston Center
Mon 12:24:13 PM 30.7842 -96.8664 111° Southeast 466 536 29,300 -2,855 Descending Houston Center
Mon 12:25:15 PM 30.7267 -96.6961 111° Southeast 479 551 26,100 -2,832 Descending Houston Center
Mon 12:26:18 PM 30.6778 -96.5458 111° Southeast 489 563 23,400 -2,544 Descending Houston Center
Mon 12:27:20 PM 30.6325 -96.4017 110° East 474 545 20,800 -2,419 Descending Houston Center
Mon 12:28:22 PM 30.5878 -96.2686 111° Southeast 441 507 18,400 -2,226 Descending Houston Center
Mon 12:29:24 PM 30.5478 -96.1464 111° Southeast 406 467 16,200 -2,177 Descending Houston Center
Mon 12:30:26 PM 30.5017 -96.0103 111° Southeast 405 466 13,900 -1,984 Descending Houston Center
Mon 12:31:28 PM 30.4608 -95.8919 112° Southeast 399 459 12,100 -968 Descending Houston Center
Mon 12:32:30 PM 30.3931 -95.7994 130° Southeast 383 441 11,900 -484 Descending Houston Center
Mon 12:33:32 PM 30.3150 -95.7186 138° Southeast 377 434 11,100 -823 Descending Houston Center
Mon 12:34:34 PM 30.2442 -95.6433 137° Southeast 352 405 10,200 -1,736 Descending Houston Center
Mon 12:35:33 PM 30.1739 -95.5764 141° Southeast 294 338 7,600 -2,016 Descending Houston Center
Mon 12:36:39 PM 30.1156 -95.5114 136° Southeast 287 330 6,000 -750 Descending Houston Center
Mon 12:37:41 PM 30.1058 -95.4231 97° East 283 326 6,000  Level Houston Center
Mon 12:38:43 PM 30.1092 -95.3400 87° East 265 305 6,000  Level Houston Center
Mon 12:39:45 PM 30.1064 -95.2611 92° East 251 289 6,000 -836 Level Houston Center
Mon 12:40:45 PM 30.0964 -95.1872 99° East 225 259 4,300 -1,835 Descending Houston Center
Mon 12:41:46 PM 30.0389 -95.1797 174° South 210 242 2,300 -1,181 Descending Houston Center
Mon 12:42:52 PM 30.0067 -95.2297 233° Southwest 199 229 1,800 -634 Descending Houston Center
Mon 12:43:49 PM 30.0081 -95.2775 272° West 128 147 1,000 -842 Descending Houston Center

Login

Don't have an account? Register now (free) for customized features, flight alerts, and more!